Airport View

Enter AWOS ICAO identifier for current METAR.

ex. KFNL

KPWD 280210Z AUTO 32013KT 10SM CLR 10/00 A3014 RMK A01 Plentywood

28 Sep 2020 02:28

Frequency: 135.025

Phone: 406-765-2149

Other Area AWOS: CWAQ - KPO1 - KD50 - KISN